Time;durP1;ratioP1;P1;durP2;ratioP2;P2;SDS_P1;SDS_P2;PMS_P1;PMS_P2;Temp;Humidity;BMP_temperature;BMP_pressure;BME280_temperature;BME280_humidity;BME280_pressure;Samples;Min_cycle;Max_cycle;Signal;HPM_P1;HPM_P2
2021/09/11 00:02:22;;;;;;;0.40;0.40;;;17.50;99.90;;;;;;5054348;28;20209;-68
2021/09/11 00:04:49;;;;;;;0.30;0.30;;;17.50;99.90;;;;;;5054443;28;20173;-69
2021/09/11 00:07:15;;;;;;;0.40;0.40;;;17.50;99.90;;;;;;5054177;28;20570;-68
2021/09/11 00:09:42;;;;;;;0.30;0.30;;;17.50;99.90;;;;;;5054392;28;20405;-67
2021/09/11 00:12:08;;;;;;;0.40;0.40;;;17.60;99.90;;;;;;5054125;28;20431;-69
2021/09/11 00:14:35;;;;;;;0.30;0.30;;;17.60;99.90;;;;;;5054184;28;20491;-68
2021/09/11 00:17:01;;;;;;;0.50;0.50;;;17.60;99.90;;;;;;5054113;28;20952;-68
2021/09/11 00:19:26;;;;;;;0.30;0.30;;;17.60;99.90;;;;;;5054217;28;20404;-70
2021/09/11 00:21:52;;;;;;;0.70;0.70;;;17.50;99.90;;;;;;5053948;28;20227;-69
2021/09/11 00:24:18;;;;;;;0.40;0.40;;;17.50;99.90;;;;;;5053862;28;20214;-66
2021/09/11 00:26:43;;;;;;;0.50;0.50;;;17.50;99.90;;;;;;5053813;28;20647;-68
2021/09/11 00:29:09;;;;;;;0.30;0.30;;;17.50;99.90;;;;;;5054062;28;20177;-70
2021/09/11 00:31:34;;;;;;;0.30;0.30;;;17.60;99.90;;;;;;5053880;28;20182;-70
2021/09/11 00:34:01;;;;;;;0.40;0.40;;;17.60;99.90;;;;;;5052555;28;20527;-68
2021/09/11 00:36:27;;;;;;;0.30;0.30;;;17.70;99.90;;;;;;5053645;28;20173;-70
2021/09/11 00:38:53;;;;;;;0.30;0.30;;;17.70;99.90;;;;;;5053850;28;20484;-70
2021/09/11 00:41:19;;;;;;;1.87;0.83;;;17.70;99.90;;;;;;5053840;28;20837;-70
2021/09/11 00:43:47;;;;;;;0.60;0.60;;;17.70;99.90;;;;;;5053602;28;20675;-67
2021/09/11 00:46:13;;;;;;;0.40;0.40;;;17.60;99.90;;;;;;5053815;28;20427;-69
2021/09/11 00:48:39;;;;;;;0.30;0.30;;;17.70;99.90;;;;;;5053852;28;20400;-68
2021/09/11 00:51:05;;;;;;;0.30;0.30;;;17.70;99.90;;;;;;5053748;28;20404;-67
2021/09/11 00:53:31;;;;;;;0.40;0.40;;;17.80;99.90;;;;;;5053508;28;20442;-71
2021/09/11 00:55:57;;;;;;;0.30;0.30;;;17.70;99.90;;;;;;5053527;28;20643;-69
2021/09/11 00:58:24;;;;;;;0.30;0.30;;;17.70;99.90;;;;;;5053357;28;20655;-71
2021/09/11 01:00:50;;;;;;;1.03;1.03;;;17.70;99.90;;;;;;5053504;28;20490;-71
2021/09/11 01:03:15;;;;;;;0.50;0.50;;;17.80;99.90;;;;;;5053273;28;20598;-70
2021/09/11 01:05:44;;;;;;;0.40;0.40;;;17.80;99.90;;;;;;5053008;28;20169;-68
2021/09/11 01:08:10;;;;;;;0.60;0.60;;;17.60;99.90;;;;;;5053198;28;20638;-68
2021/09/11 01:10:39;;;;;;;0.40;0.40;;;17.50;99.90;;;;;;5053328;28;20401;-72
2021/09/11 01:13:05;;;;;;;0.33;0.33;;;17.50;99.90;;;;;;5053252;28;20439;-70
2021/09/11 01:15:33;;;;;;;0.30;0.30;;;17.60;99.90;;;;;;5053409;28;20407;-69
2021/09/11 01:17:59;;;;;;;0.40;0.40;;;17.70;99.90;;;;;;5053062;28;20498;-70
2021/09/11 01:20:25;;;;;;;0.30;0.30;;;17.70;99.90;;;;;;5053422;28;20791;-70
2021/09/11 01:22:51;;;;;;;0.30;0.30;;;17.60;99.90;;;;;;5053535;28;20452;-72
2021/09/11 01:25:17;;;;;;;1.03;1.03;;;17.60;99.90;;;;;;5053143;28;20165;-68
2021/09/11 01:27:43;;;;;;;0.30;0.30;;;17.60;99.90;;;;;;5053096;28;20758;-70
2021/09/11 01:30:12;;;;;;;0.90;0.90;;;17.60;99.90;;;;;;5053366;28;20169;-70
2021/09/11 01:32:39;;;;;;;0.40;0.40;;;17.50;99.90;;;;;;5053295;28;20232;-70
2021/09/11 01:35:05;;;;;;;0.30;0.30;;;17.50;99.90;;;;;;5053119;28;20416;-71
2021/09/11 01:37:31;;;;;;;0.30;0.30;;;17.50;99.90;;;;;;5052873;28;20424;-71
2021/09/11 01:39:57;;;;;;;2.70;1.03;;;17.50;99.90;;;;;;5053113;28;20434;-69
2021/09/11 01:42:25;;;;;;;0.40;0.40;;;17.40;99.90;;;;;;5053010;28;20489;-69
2021/09/11 01:45:00;;;;;;;0.50;0.50;;;17.50;99.90;;;;;;5053245;28;20401;-69
2021/09/11 01:47:26;;;;;;;0.30;0.30;;;17.40;99.90;;;;;;5052839;28;20927;-69
2021/09/11 01:49:53;;;;;;;1.60;1.50;;;17.30;99.90;;;;;;5052929;28;20408;-68
2021/09/11 01:52:20;;;;;;;0.57;0.53;;;17.30;99.90;;;;;;5052903;28;20438;-67
2021/09/11 01:54:46;;;;;;;0.50;0.50;;;17.40;99.90;;;;;;5052861;28;20431;-68
2021/09/11 01:57:12;;;;;;;0.40;0.40;;;17.40;99.90;;;;;;5052828;28;20751;-71
2021/09/11 01:59:39;;;;;;;1.07;1.07;;;17.40;99.90;;;;;;5053061;28;20996;-71
2021/09/11 02:02:06;;;;;;;0.30;0.30;;;17.30;99.90;;;;;;5052801;28;20476;-71
2021/09/11 02:04:33;;;;;;;0.40;0.40;;;17.40;99.90;;;;;;5053085;28;20941;-69
2021/09/11 02:06:58;;;;;;;0.30;0.30;;;17.30;99.90;;;;;;5052768;28;20431;-68
2021/09/11 02:09:24;;;;;;;0.30;0.30;;;17.30;99.90;;;;;;5052911;28;20408;-70
2021/09/11 02:11:51;;;;;;;0.30;0.30;;;17.10;99.90;;;;;;5053083;28;20273;-69
2021/09/11 02:14:17;;;;;;;0.30;0.30;;;17.10;99.90;;;;;;5052747;28;20417;-70
2021/09/11 02:16:42;;;;;;;0.30;0.30;;;17.10;99.90;;;;;;5055244;28;20775;-68
2021/09/11 02:19:08;;;;;;;0.30;0.30;;;17.10;99.90;;;;;;5056349;28;20774;-70
2021/09/11 02:21:34;;;;;;;0.50;0.50;;;17.10;99.90;;;;;;5056220;28;20182;-69
2021/09/11 02:24:00;;;;;;;0.40;0.40;;;17.10;99.90;;;;;;5056165;28;20201;-69
2021/09/11 02:26:25;;;;;;;0.50;0.50;;;17.10;99.90;;;;;;5056069;28;20167;-70
2021/09/11 02:28:52;;;;;;;0.40;0.40;;;17.10;99.90;;;;;;5056365;28;20534;-70
2021/09/11 02:31:17;;;;;;;0.50;0.50;;;17.00;99.90;;;;;;5056172;28;20194;-70
2021/09/11 02:33:44;;;;;;;0.30;0.30;;;17.10;99.90;;;;;;5056078;28;20443;-69
2021/09/11 02:36:10;;;;;;;0.30;0.30;;;17.30;99.90;;;;;;5056042;28;20415;-71
2021/09/11 02:38:36;;;;;;;1.57;1.47;;;17.40;99.90;;;;;;5055920;28;20405;-69
2021/09/11 02:41:02;;;;;;;0.40;0.40;;;17.40;99.90;;;;;;5056090;28;20486;-71
2021/09/11 02:43:27;;;;;;;0.30;0.30;;;17.40;99.90;;;;;;5055737;28;20984;-67
2021/09/11 02:45:53;;;;;;;0.40;0.40;;;17.30;99.90;;;;;;5055751;28;20252;-70
2021/09/11 02:48:19;;;;;;;2.23;0.80;;;17.40;99.90;;;;;;5055676;28;20174;-68
2021/09/11 02:50:44;;;;;;;0.30;0.30;;;17.50;99.90;;;;;;5055744;28;20189;-70
2021/09/11 02:53:10;;;;;;;0.30;0.30;;;17.30;99.90;;;;;;5055568;28;20186;-69
2021/09/11 02:55:36;;;;;;;0.50;0.50;;;17.20;99.90;;;;;;5055816;28;20170;-68
2021/09/11 02:58:02;;;;;;;0.30;0.30;;;17.10;99.90;;;;;;5055569;28;20210;-68
2021/09/11 03:00:27;;;;;;;0.30;0.30;;;17.20;99.90;;;;;;5056224;28;20865;-67
2021/09/11 03:02:53;;;;;;;0.30;0.30;;;17.10;99.90;;;;;;5055427;28;20272;-68
2021/09/11 03:05:19;;;;;;;1.23;1.03;;;17.20;99.90;;;;;;5055511;28;20622;-70
2021/09/11 03:07:44;;;;;;;0.50;0.50;;;17.20;99.90;;;;;;5055479;28;20173;-69
2021/09/11 03:10:10;;;;;;;0.40;0.40;;;17.20;99.90;;;;;;5055359;28;20170;-68
2021/09/11 03:12:36;;;;;;;0.30;0.30;;;17.20;99.90;;;;;;5055327;28;20224;-68
2021/09/11 03:15:03;;;;;;;0.50;0.50;;;17.30;99.90;;;;;;5055264;28;20899;-68
2021/09/11 03:17:28;;;;;;;0.57;0.57;;;17.30;99.90;;;;;;5055086;28;20594;-68
2021/09/11 03:19:54;;;;;;;0.30;0.30;;;17.30;99.90;;;;;;5055615;28;20499;-68
2021/09/11 03:22:19;;;;;;;0.30;0.30;;;17.40;99.90;;;;;;5055079;28;20193;-69
2021/09/11 03:24:45;;;;;;;0.30;0.30;;;17.30;99.90;;;;;;5055139;28;20594;-70
2021/09/11 03:27:11;;;;;;;0.30;0.30;;;17.30;99.90;;;;;;5054372;28;20166;-68
2021/09/11 03:29:36;;;;;;;0.80;0.50;;;17.40;99.90;;;;;;5054828;28;20171;-69
2021/09/11 03:32:02;;;;;;;0.60;0.60;;;17.40;99.90;;;;;;5055158;28;20530;-71
2021/09/11 03:34:28;;;;;;;0.30;0.30;;;17.30;99.90;;;;;;5055131;28;20188;-69
2021/09/11 03:36:53;;;;;;;0.30;0.30;;;17.30;99.90;;;;;;5054773;28;20181;-69
2021/09/11 03:39:19;;;;;;;0.30;0.30;;;17.20;99.90;;;;;;5054979;28;20183;-68
2021/09/11 03:41:44;;;;;;;0.30;0.30;;;17.20;99.90;;;;;;5054919;28;20552;-70
2021/09/11 03:44:10;;;;;;;2.10;0.93;;;17.30;99.90;;;;;;5054640;28;20200;-68
2021/09/11 03:46:36;;;;;;;0.30;0.30;;;17.30;99.90;;;;;;5054775;28;20176;-68
2021/09/11 03:49:01;;;;;;;0.40;0.40;;;17.30;99.90;;;;;;5054670;28;20169;-68
2021/09/11 03:51:30;;;;;;;0.30;0.30;;;17.20;99.90;;;;;;5054761;28;20174;-70
2021/09/11 03:53:55;;;;;;;0.60;0.57;;;17.20;99.90;;;;;;5054432;28;20271;-69
2021/09/11 03:56:21;;;;;;;0.90;0.90;;;17.10;99.90;;;;;;5054464;28;20499;-71
2021/09/11 03:58:47;;;;;;;0.30;0.30;;;17.20;99.90;;;;;;5054622;28;20178;-68
2021/09/11 04:01:12;;;;;;;0.30;0.30;;;17.10;99.90;;;;;;5054288;28;20174;-67
2021/09/11 04:03:38;;;;;;;0.40;0.40;;;17.10;99.90;;;;;;5054173;28;20201;-67
2021/09/11 04:06:04;;;;;;;0.90;0.90;;;17.20;99.90;;;;;;5054428;28;20198;-68
2021/09/11 04:08:30;;;;;;;0.50;0.50;;;17.20;99.90;;;;;;5054260;28;20164;-71
2021/09/11 04:10:57;;;;;;;0.87;0.70;;;17.30;99.90;;;;;;5054370;28;20247;-67
2021/09/11 04:13:23;;;;;;;0.60;0.60;;;17.40;99.90;;;;;;5054264;28;20417;-69
2021/09/11 04:15:49;;;;;;;0.33;0.33;;;17.40;99.90;;;;;;5054112;28;20449;-67
2021/09/11 04:18:15;;;;;;;1.50;0.97;;;17.40;99.90;;;;;;5053995;28;20437;-71
2021/09/11 04:20:40;;;;;;;0.40;0.40;;;17.30;99.90;;;;;;5054282;28;20173;-70
2021/09/11 04:23:06;;;;;;;0.30;0.30;;;17.30;99.90;;;;;;5053793;28;20209;-68
2021/09/11 04:25:31;;;;;;;0.30;0.30;;;17.10;99.90;;;;;;5053984;28;20170;-71
2021/09/11 04:27:57;;;;;;;0.30;0.30;;;17.00;99.90;;;;;;5053699;28;20179;-69
2021/09/11 04:30:23;;;;;;;0.30;0.30;;;17.00;99.90;;;;;;5054322;28;20169;-70
2021/09/11 04:32:48;;;;;;;0.60;0.60;;;17.00;99.90;;;;;;5053942;28;20243;-69
2021/09/11 04:35:14;;;;;;;0.40;0.40;;;16.90;99.90;;;;;;5053976;28;20582;-69
2021/09/11 04:37:40;;;;;;;0.30;0.30;;;16.90;99.90;;;;;;5053726;28;20171;-67
2021/09/11 04:40:06;;;;;;;2.40;2.30;;;17.00;99.90;;;;;;5053012;28;20170;-70
2021/09/11 04:42:32;;;;;;;0.50;0.50;;;17.00;99.90;;;;;;5053706;28;20202;-69
2021/09/11 04:44:58;;;;;;;0.50;0.50;;;17.10;99.90;;;;;;5053606;28;20459;-67
2021/09/11 04:47:23;;;;;;;0.30;0.30;;;17.10;99.90;;;;;;5053634;28;20224;-72
2021/09/11 04:49:49;;;;;;;2.70;2.50;;;17.20;99.90;;;;;;5053806;28;20165;-70
2021/09/11 04:52:15;;;;;;;1.63;1.53;;;17.20;99.90;;;;;;5053714;28;20193;-67
2021/09/11 04:54:40;;;;;;;0.40;0.40;;;17.30;99.90;;;;;;5053489;28;20264;-71
2021/09/11 04:57:06;;;;;;;0.30;0.30;;;17.40;99.90;;;;;;5053338;28;20413;-67
2021/09/11 05:00:15;;;;;;;0.30;0.30;;;17.30;99.90;;;;;;5053475;28;20167;-68
2021/09/11 05:02:41;;;;;;;0.40;0.40;;;17.40;99.90;;;;;;5053503;28;20201;-69
2021/09/11 05:05:07;;;;;;;0.30;0.30;;;17.20;99.90;;;;;;5053404;28;20465;-70
2021/09/11 05:07:34;;;;;;;0.30;0.30;;;17.20;99.90;;;;;;5053180;28;20179;-68
2021/09/11 05:10:00;;;;;;;0.40;0.40;;;17.30;99.90;;;;;;5053568;28;20438;-70
2021/09/11 05:12:26;;;;;;;0.30;0.30;;;17.10;99.90;;;;;;5053286;28;20917;-70
2021/09/11 05:14:51;;;;;;;0.30;0.30;;;17.10;99.90;;;;;;5053274;28;20170;-69
2021/09/11 05:17:17;;;;;;;0.30;0.30;;;17.10;99.90;;;;;;5053113;28;20174;-69
2021/09/11 05:19:43;;;;;;;0.40;0.40;;;17.10;99.90;;;;;;5053243;28;20169;-69
2021/09/11 05:22:08;;;;;;;0.30;0.30;;;17.00;99.90;;;;;;5053368;28;20195;-71
2021/09/11 05:24:34;;;;;;;0.30;0.30;;;16.90;99.90;;;;;;5053360;28;20198;-69
2021/09/11 05:27:00;;;;;;;0.30;0.30;;;17.00;99.90;;;;;;5053098;28;20169;-69
2021/09/11 05:29:26;;;;;;;0.40;0.40;;;16.90;99.90;;;;;;5053235;28;20187;-69
2021/09/11 05:31:52;;;;;;;0.30;0.30;;;16.80;99.90;;;;;;5053465;28;20416;-70
2021/09/11 05:34:18;;;;;;;0.30;0.30;;;16.80;99.90;;;;;;5053304;28;20421;-72
2021/09/11 05:36:44;;;;;;;0.30;0.30;;;16.90;99.90;;;;;;5052819;28;20409;-70
2021/09/11 05:39:09;;;;;;;0.30;0.30;;;17.00;99.90;;;;;;5053244;28;20174;-70
2021/09/11 05:41:35;;;;;;;0.40;0.40;;;17.00;99.90;;;;;;5052635;28;20191;-73
2021/09/11 05:44:02;;;;;;;0.73;0.50;;;17.10;99.90;;;;;;5052955;28;20285;-68
2021/09/11 05:46:27;;;;;;;0.50;0.50;;;17.10;99.90;;;;;;5052861;28;20171;-70
2021/09/11 05:48:53;;;;;;;0.50;0.50;;;17.20;99.90;;;;;;5053190;28;20398;-68
2021/09/11 05:51:19;;;;;;;0.30;0.30;;;17.20;99.90;;;;;;5055107;28;20168;-67
2021/09/11 05:53:45;;;;;;;0.30;0.30;;;17.20;99.90;;;;;;5056680;28;20442;-66
2021/09/11 05:56:11;;;;;;;0.40;0.40;;;17.20;99.90;;;;;;5056710;28;20173;-70
2021/09/11 05:58:37;;;;;;;1.03;0.83;;;17.20;99.90;;;;;;5057139;28;20514;-67
2021/09/11 06:01:02;;;;;;;2.67;1.90;;;17.10;99.90;;;;;;5056609;28;20427;-68
2021/09/11 06:03:28;;;;;;;0.30;0.30;;;17.10;99.90;;;;;;5056488;28;20202;-67
2021/09/11 06:05:55;;;;;;;1.40;1.30;;;17.20;99.90;;;;;;5056612;28;20249;-69
2021/09/11 06:08:20;;;;;;;1.40;1.30;;;17.20;99.90;;;;;;5056364;28;20195;-67
2021/09/11 06:10:46;;;;;;;0.40;0.40;;;17.20;99.90;;;;;;5056112;28;20893;-68
2021/09/11 06:13:12;;;;;;;1.33;1.23;;;17.30;99.90;;;;;;5056180;28;20198;-67
2021/09/11 06:15:37;;;;;;;0.40;0.40;;;17.50;99.90;;;;;;5056494;28;20208;-68
2021/09/11 06:18:03;;;;;;;0.50;0.50;;;17.60;99.90;;;;;;5056400;28;20234;-69
2021/09/11 06:20:29;;;;;;;0.30;0.30;;;17.70;99.90;;;;;;5056271;28;20201;-66
2021/09/11 06:22:55;;;;;;;0.50;0.50;;;17.80;99.90;;;;;;5054724;28;20202;-69
2021/09/11 06:25:20;;;;;;;0.30;0.30;;;18.00;99.90;;;;;;5056152;28;20162;-67
2021/09/11 06:27:46;;;;;;;0.30;0.30;;;18.10;99.90;;;;;;5055051;28;20436;-69
2021/09/11 06:30:12;;;;;;;1.10;1.10;;;18.00;99.90;;;;;;5054565;28;20170;-68
2021/09/11 06:32:38;;;;;;;0.47;0.47;;;18.00;99.90;;;;;;5055623;28;20198;-67
2021/09/11 06:35:05;;;;;;;0.47;0.47;;;18.00;99.90;;;;;;5054919;28;20500;-67
2021/09/11 06:37:32;;;;;;;0.60;0.60;;;18.30;99.90;;;;;;5055780;28;20409;-69
2021/09/11 06:39:58;;;;;;;0.30;0.30;;;18.60;99.90;;;;;;5056231;28;20408;-66
2021/09/11 06:42:23;;;;;;;1.50;0.70;;;19.00;99.90;;;;;;5056033;28;20427;-67
2021/09/11 06:44:49;;;;;;;0.40;0.40;;;19.30;99.90;;;;;;5055844;28;20404;-69
2021/09/11 06:47:15;;;;;;;0.30;0.30;;;19.40;99.90;;;;;;5055797;28;20228;-69
2021/09/11 06:49:41;;;;;;;0.30;0.30;;;19.30;99.90;;;;;;5055939;28;20166;-68
2021/09/11 06:52:08;;;;;;;0.40;0.40;;;19.30;99.90;;;;;;5056178;28;20193;-68
2021/09/11 06:54:33;;;;;;;0.30;0.30;;;19.40;99.90;;;;;;5055740;28;20509;-68
2021/09/11 06:56:59;;;;;;;0.57;0.57;;;19.50;99.90;;;;;;5055627;28;20782;-69
2021/09/11 06:59:25;;;;;;;0.40;0.40;;;19.70;99.90;;;;;;5055859;28;20170;-66
2021/09/11 07:01:50;;;;;;;0.50;0.40;;;19.90;99.90;;;;;;5055047;28;20708;-67
2021/09/11 07:04:16;;;;;;;0.30;0.30;;;20.30;99.90;;;;;;5055205;28;20595;-69
2021/09/11 07:06:41;;;;;;;0.60;0.60;;;20.70;99.90;;;;;;5055568;28;20177;-67
2021/09/11 07:09:07;;;;;;;0.30;0.30;;;20.90;99.40;;;;;;5055494;28;20181;-69
2021/09/11 07:11:33;;;;;;;1.37;1.37;;;20.90;99.00;;;;;;5055403;28;20184;-70
2021/09/11 07:13:58;;;;;;;0.40;0.40;;;20.90;99.20;;;;;;5055331;28;20167;-69
2021/09/11 07:16:24;;;;;;;0.33;0.33;;;20.60;99.30;;;;;;5055161;28;20179;-68
2021/09/11 07:18:50;;;;;;;0.40;0.40;;;20.30;99.30;;;;;;5054048;28;20182;-70
2021/09/11 07:21:15;;;;;;;0.57;0.40;;;20.20;99.60;;;;;;5055142;28;20172;-67
2021/09/11 07:23:41;;;;;;;0.30;0.30;;;20.10;99.70;;;;;;5055234;28;20197;-67
2021/09/11 07:26:07;;;;;;;0.87;0.77;;;20.00;99.90;;;;;;5055252;28;20171;-68
2021/09/11 07:28:32;;;;;;;0.40;0.40;;;19.90;99.90;;;;;;5055068;28;20618;-70
2021/09/11 07:30:58;;;;;;;1.03;1.03;;;19.80;99.90;;;;;;5053899;28;20211;-69
2021/09/11 07:33:24;;;;;;;0.30;0.30;;;19.90;99.90;;;;;;5055147;28;20286;-68
2021/09/11 07:35:49;;;;;;;0.30;0.30;;;19.90;99.90;;;;;;5054938;28;20171;-69
2021/09/11 07:38:15;;;;;;;0.50;0.50;;;20.10;99.90;;;;;;5053492;28;20186;-69
2021/09/11 07:40:42;;;;;;;0.50;0.50;;;20.20;99.90;;;;;;5055276;28;20287;-69
2021/09/11 07:43:09;;;;;;;0.40;0.40;;;20.30;99.90;;;;;;5054663;28;20196;-67
2021/09/11 07:45:39;;;;;;;0.40;0.40;;;20.10;99.90;;;;;;5054934;28;20780;-69
2021/09/11 07:48:06;;;;;;;0.40;0.40;;;20.10;99.90;;;;;;5054559;28;20491;-69
2021/09/11 07:50:35;;;;;;;0.50;0.50;;;20.10;99.90;;;;;;5054679;28;20401;-70
2021/09/11 07:53:02;;;;;;;0.30;0.30;;;20.20;99.90;;;;;;5054670;28;20988;-66
2021/09/11 07:55:28;;;;;;;0.50;0.50;;;20.20;99.50;;;;;;5054578;28;20432;-67
2021/09/11 07:57:54;;;;;;;0.30;0.30;;;20.30;99.80;;;;;;5054677;28;20409;-69
2021/09/11 08:00:19;;;;;;;0.30;0.30;;;20.50;99.80;;;;;;5054636;28;20960;-69
2021/09/11 08:02:45;;;;;;;1.10;1.03;;;20.40;99.90;;;;;;5053498;28;20208;-67
2021/09/11 08:05:11;;;;;;;0.30;0.30;;;20.50;99.70;;;;;;5054611;28;20178;-67
2021/09/11 08:07:37;;;;;;;0.30;0.30;;;20.50;99.90;;;;;;5054228;28;20430;-69
2021/09/11 08:10:03;;;;;;;0.30;0.30;;;20.60;99.60;;;;;;5054460;28;20192;-67
2021/09/11 08:12:28;;;;;;;0.30;0.30;;;20.70;98.90;;;;;;5054323;28;20203;-67
2021/09/11 08:14:55;;;;;;;0.53;0.53;;;20.80;98.70;;;;;;5053998;28;20411;-68
2021/09/11 08:17:20;;;;;;;0.30;0.30;;;21.10;98.90;;;;;;5054254;28;20544;-67
2021/09/11 08:19:46;;;;;;;0.30;0.30;;;21.40;98.70;;;;;;5054121;28;20400;-68
2021/09/11 08:22:11;;;;;;;0.40;0.40;;;21.70;97.70;;;;;;5054216;28;20197;-67
2021/09/11 08:24:37;;;;;;;0.30;0.30;;;22.10;98.40;;;;;;5053922;28;20195;-68
2021/09/11 08:27:03;;;;;;;1.00;0.90;;;22.40;96.30;;;;;;5053955;28;20203;-67
2021/09/11 08:29:28;;;;;;;0.40;0.40;;;22.50;96.20;;;;;;5053950;28;20166;-69
2021/09/11 08:31:54;;;;;;;0.87;0.77;;;22.60;96.10;;;;;;5054028;28;20194;-69
2021/09/11 08:34:20;;;;;;;0.30;0.30;;;22.70;95.80;;;;;;5054118;28;20218;-66
2021/09/11 08:36:45;;;;;;;1.33;1.23;;;22.80;96.00;;;;;;5053684;28;20173;-68
2021/09/11 08:39:11;;;;;;;0.60;0.60;;;23.60;95.10;;;;;;5053990;28;20226;-69
2021/09/11 08:41:37;;;;;;;0.40;0.40;;;24.30;93.80;;;;;;5053557;28;20182;-69
2021/09/11 08:44:03;;;;;;;0.73;0.73;;;26.10;90.10;;;;;;5053664;28;20613;-70
2021/09/11 08:46:29;;;;;;;0.30;0.30;;;28.00;81.10;;;;;;5053487;28;20170;-66
2021/09/11 08:48:56;;;;;;;0.30;0.30;;;28.80;76.70;;;;;;5053673;28;20376;-68
2021/09/11 08:51:23;;;;;;;0.30;0.30;;;28.30;74.60;;;;;;5053777;28;20782;-68
2021/09/11 08:53:49;;;;;;;0.30;0.30;;;27.20;78.10;;;;;;5052186;28;20426;-68
2021/09/11 08:56:15;;;;;;;0.67;0.67;;;26.20;82.60;;;;;;5053507;28;20417;-68
2021/09/11 08:58:43;;;;;;;0.40;0.40;;;25.40;82.90;;;;;;5053652;28;20880;-68
2021/09/11 09:01:09;;;;;;;0.30;0.30;;;25.60;84.10;;;;;;5053691;28;20192;-67
2021/09/11 09:03:40;;;;;;;0.30;0.30;;;27.20;84.20;;;;;;5053261;28;20429;-68
2021/09/11 09:06:13;;;;;;;0.30;0.30;;;28.00;77.70;;;;;;5053508;28;20161;-67
2021/09/11 09:08:39;;;;;;;0.30;0.30;;;27.50;78.60;;;;;;5053495;28;20826;-68
2021/09/11 09:11:28;;;;;;;0.30;0.30;;;26.50;80.30;;;;;;5053555;28;20376;-69
2021/09/11 09:14:03;;;;;;;0.37;0.37;;;26.00;85.20;;;;;;5053593;28;20430;-69
2021/09/11 09:16:36;;;;;;;0.30;0.30;;;26.40;80.90;;;;;;5053229;28;20404;-68
2021/09/11 09:19:13;;;;;;;0.30;0.30;;;27.00;79.30;;;;;;5053523;28;20731;-69
2021/09/11 09:21:40;;;;;;;0.30;0.30;;;27.90;76.80;;;;;;5053417;28;20432;-68
2021/09/11 09:24:09;;;;;;;1.07;1.07;;;29.20;75.00;;;;;;5053151;28;20456;-68
2021/09/11 09:26:55;;;;;;;0.50;0.40;;;29.60;70.20;;;;;;5055908;28;20405;-70
2021/09/11 09:29:21;;;;;;;0.67;0.67;;;28.90;71.30;;;;;;5057572;28;20407;-68
2021/09/11 09:31:49;;;;;;;0.30;0.30;;;28.50;71.50;;;;;;5057350;28;20923;-69
2021/09/11 09:34:28;;;;;;;0.30;0.30;;;28.30;72.00;;;;;;5057237;28;20413;-68
2021/09/11 09:36:56;;;;;;;0.40;0.40;;;28.70;69.30;;;;;;5057188;28;20401;-66
2021/09/11 09:39:22;;;;;;;1.03;1.03;;;29.30;70.40;;;;;;5057221;28;20400;-68
2021/09/11 09:41:52;;;;;;;0.30;0.30;;;30.50;67.80;;;;;;5057144;28;20451;-70
2021/09/11 09:44:20;;;;;;;0.30;0.30;;;30.90;67.70;;;;;;5057075;28;20556;-67
2021/09/11 09:46:48;;;;;;;0.30;0.30;;;31.90;63.50;;;;;;5056954;28;20405;-67
2021/09/11 09:49:23;;;;;;;0.40;0.40;;;31.40;61.00;;;;;;5057093;28;20486;-68
2021/09/11 09:51:51;;;;;;;0.70;0.70;;;32.40;56.60;;;;;;5056852;28;20826;-69
2021/09/11 09:54:18;;;;;;;0.30;0.30;;;32.50;56.50;;;;;;5056724;28;20424;-70
2021/09/11 09:56:52;;;;;;;0.73;0.73;;;31.30;57.00;;;;;;5056806;28;20462;-70
2021/09/11 09:59:18;;;;;;;0.80;0.80;;;29.00;59.10;;;;;;5056972;28;20402;-67
2021/09/11 10:01:44;;;;;;;0.40;0.40;;;26.70;65.90;;;;;;5056607;28;20424;-66
2021/09/11 10:04:32;;;;;;;0.40;0.40;;;25.30;72.10;;;;;;5056801;28;20472;-69
2021/09/11 15:54:33;;;;;;;0.30;0.30;;;21.40;95.00;;;;;;5054570;28;20924;-69
2021/09/11 15:57:00;;;;;;;0.30;0.30;;;21.50;95.20;;;;;;5054946;28;20432;-69
2021/09/11 15:59:26;;;;;;;0.30;0.30;;;21.50;94.60;;;;;;5054515;28;20444;-67
2021/09/11 16:01:52;;;;;;;0.30;0.30;;;21.40;94.10;;;;;;5054650;28;20450;-69
2021/09/11 16:04:18;;;;;;;0.30;0.30;;;20.90;96.50;;;;;;5054206;28;20543;-67
2021/09/11 16:06:44;;;;;;;0.30;0.30;;;20.70;97.20;;;;;;5054647;28;20484;-69
2021/09/11 16:09:09;;;;;;;0.30;0.30;;;20.60;96.40;;;;;;5049078;28;20453;-67
2021/09/11 16:11:35;;;;;;;0.50;0.50;;;20.50;98.00;;;;;;5054500;28;20184;-69
2021/09/11 16:14:01;;;;;;;0.30;0.30;;;20.60;97.10;;;;;;5053773;28;20247;-68
2021/09/11 16:16:27;;;;;;;0.30;0.30;;;20.80;96.60;;;;;;5053863;28;20443;-67
2021/09/11 16:18:53;;;;;;;0.30;0.30;;;20.90;96.90;;;;;;5052954;28;20170;-67
2021/09/11 16:21:18;;;;;;;0.30;0.30;;;21.00;97.10;;;;;;5052623;28;20670;-69
2021/09/11 16:23:45;;;;;;;0.30;0.30;;;20.90;97.60;;;;;;5053797;28;20654;-68
2021/09/11 16:26:11;;;;;;;0.30;0.30;;;20.70;98.10;;;;;;5054055;28;20169;-69
2021/09/11 16:28:36;;;;;;;0.50;0.40;;;20.70;98.40;;;;;;5054569;28;20396;-68
2021/09/11 16:31:03;;;;;;;0.30;0.30;;;20.50;98.70;;;;;;5053886;28;20221;-66
2021/09/11 16:33:29;;;;;;;0.30;0.30;;;20.40;99.10;;;;;;5053968;28;20640;-68
2021/09/11 16:35:54;;;;;;;0.30;0.30;;;20.10;99.10;;;;;;5053980;28;20414;-66
2021/09/11 16:38:20;;;;;;;0.40;0.40;;;20.00;99.30;;;;;;5053894;28;20176;-69
2021/09/11 16:40:45;;;;;;;0.40;0.40;;;19.80;99.00;;;;;;5053747;28;20568;-67
2021/09/11 16:43:11;;;;;;;0.30;0.30;;;19.50;99.50;;;;;;5053526;28;20201;-69
2021/09/11 16:45:39;;;;;;;0.30;0.30;;;19.30;99.90;;;;;;5053750;28;20269;-68
2021/09/11 16:48:05;;;;;;;0.30;0.30;;;19.10;99.90;;;;;;5053819;28;20428;-68
2021/09/11 16:50:31;;;;;;;0.30;0.30;;;18.90;99.90;;;;;;5053503;28;20443;-67
2021/09/11 16:52:57;;;;;;;0.30;0.30;;;18.80;99.90;;;;;;5053545;28;20410;-68
2021/09/11 16:55:23;;;;;;;0.30;0.30;;;18.70;99.90;;;;;;5053360;28;20396;-66
2021/09/11 16:57:48;;;;;;;0.30;0.30;;;18.60;99.90;;;;;;5053338;28;20178;-67
2021/09/11 17:00:14;;;;;;;0.30;0.30;;;18.60;99.90;;;;;;5053505;28;20189;-69
2021/09/11 17:02:42;;;;;;;0.30;0.30;;;18.60;99.90;;;;;;5053399;28;20167;-68
2021/09/11 17:05:11;;;;;;;0.30;0.30;;;18.50;99.90;;;;;;5053427;28;20417;-67
2021/09/11 17:07:37;;;;;;;0.40;0.40;;;18.30;99.90;;;;;;5053828;28;20409;-65
2021/09/11 17:10:03;;;;;;;0.60;0.40;;;18.10;99.90;;;;;;5053679;28;20538;-69
2021/09/11 17:12:29;;;;;;;0.40;0.40;;;18.00;99.90;;;;;;5053408;28;20621;-68
2021/09/11 17:14:55;;;;;;;0.30;0.30;;;17.90;99.90;;;;;;5053253;28;20404;-67
2021/09/11 17:17:20;;;;;;;0.30;0.30;;;17.80;99.90;;;;;;5053458;28;20181;-67
2021/09/11 17:19:46;;;;;;;1.03;0.50;;;17.80;99.90;;;;;;5053445;28;20273;-69
2021/09/11 17:22:13;;;;;;;0.30;0.30;;;17.80;99.90;;;;;;5052012;28;20177;-68
2021/09/11 17:24:39;;;;;;;0.30;0.30;;;17.70;99.90;;;;;;5052984;28;20194;-68
2021/09/11 17:27:04;;;;;;;0.30;0.30;;;17.60;99.90;;;;;;5053267;28;20416;-66
2021/09/11 17:29:30;;;;;;;0.40;0.40;;;17.50;99.90;;;;;;5053179;28;20212;-66
2021/09/11 17:31:56;;;;;;;0.50;0.50;;;17.50;99.90;;;;;;5053220;28;20162;-66
2021/09/11 17:34:22;;;;;;;0.40;0.40;;;17.40;99.90;;;;;;5053054;28;20170;-67
2021/09/11 17:36:47;;;;;;;0.30;0.30;;;17.30;99.90;;;;;;5053079;28;20635;-68
2021/09/11 17:39:13;;;;;;;0.30;0.30;;;17.20;99.90;;;;;;5053041;28;20408;-69
2021/09/11 17:41:39;;;;;;;0.30;0.30;;;17.20;99.90;;;;;;5053116;28;20173;-68
2021/09/11 17:44:05;;;;;;;0.30;0.30;;;17.10;99.90;;;;;;5052847;28;20247;-66
2021/09/11 17:46:32;;;;;;;0.30;0.30;;;17.10;99.90;;;;;;5054052;28;20169;-69
2021/09/11 17:48:58;;;;;;;0.30;0.30;;;17.00;99.90;;;;;;5056956;28;20411;-68
2021/09/11 17:51:23;;;;;;;0.30;0.30;;;16.90;99.90;;;;;;5056918;28;20454;-67
2021/09/11 17:53:49;;;;;;;0.30;0.30;;;16.90;99.90;;;;;;5056810;28;20404;-68
2021/09/11 17:56:16;;;;;;;0.30;0.30;;;16.90;99.90;;;;;;5056950;28;20685;-68
2021/09/11 17:58:42;;;;;;;0.30;0.30;;;16.80;99.90;;;;;;5056876;28;20184;-68
2021/09/11 18:01:08;;;;;;;0.30;0.30;;;16.80;99.90;;;;;;5056731;28;20431;-67
2021/09/11 18:03:33;;;;;;;0.30;0.30;;;16.70;99.90;;;;;;5056638;28;20205;-68
2021/09/11 18:05:59;;;;;;;0.30;0.30;;;16.60;99.90;;;;;;5056913;28;20166;-66
2021/09/11 18:08:25;;;;;;;0.50;0.50;;;16.50;99.90;;;;;;5056711;28;20166;-68
2021/09/11 18:10:51;;;;;;;0.40;0.40;;;16.40;99.90;;;;;;5056730;28;20719;-69
2021/09/11 18:13:16;;;;;;;0.30;0.30;;;16.30;99.90;;;;;;5056499;28;20753;-68
2021/09/11 18:15:42;;;;;;;0.30;0.30;;;16.30;99.90;;;;;;5056541;28;20168;-68
2021/09/11 18:18:08;;;;;;;0.30;0.30;;;16.20;99.90;;;;;;5056608;28;20885;-67
2021/09/11 18:20:34;;;;;;;0.30;0.30;;;16.20;99.90;;;;;;5056389;28;20192;-68
2021/09/11 18:23:00;;;;;;;0.30;0.30;;;16.10;99.90;;;;;;5056369;28;20898;-68
2021/09/11 18:25:26;;;;;;;0.30;0.30;;;16.00;99.90;;;;;;5056259;28;20627;-66
2021/09/11 18:27:52;;;;;;;0.40;0.40;;;16.00;99.90;;;;;;5056396;28;20172;-66
2021/09/11 18:30:18;;;;;;;0.30;0.30;;;16.00;99.90;;;;;;5056341;28;20423;-69
2021/09/11 18:32:44;;;;;;;0.30;0.30;;;16.00;99.90;;;;;;5056328;28;20405;-68